Kingston, GA

2:05 PM EDT on October 24, 2014 (GMT -0400)
Russell | Change Station
CLOSE
Current Station
Airport
Location: Rome,
Elevation: 643 ft
Nearby Weather Stations

Elev 643 ft 34.35 °N, 85.16 °W | Updated 12 minutes ago

Clear
Clear
71 °F
Feels Like 71 °F
N
4
Wind Variable Wind from Variable

Today
High -- | Low -- °F
--% Chance of Precip.
Yesterday
High -- | Low -- °F
Precip. -- in
7:52 AM 6:54 PM
New Moon, 1% visible
Pressure 30.02 in
Visibility 10.0 miles
Clouds Clear
Dew Point 45 °F
Humidity 39%
Rainfall 0.00 in
Snow Depth Not available.
UV 6 out of 12
Pollen 2.50 out of 12
Ozone Good
PM2.5 Moderate
Flu Activity Sporadic
METAR KRMG 241753Z AUTO VRB03KT 10SM CLR 22/07 A3004 RMK AO2 SLP166 T02170072 10222 20089 58015

More Conditions Fewer Conditions

Pressure 30.02 in
Visibility 10.0 miles
Clouds Clear
Dew Point 45 °F
Humidity 39%
Rainfall 0.00 in
Snow Depth Not available.
UV 6 out of 12
Pollen 2.50 out of 12
Ozone Good
PM2.5 Moderate
Flu Activity Sporadic
METAR KRMG 241753Z AUTO VRB03KT 10SM CLR 22/07 A3004 RMK AO2 SLP166 T02170072 10222 20089 58015

More Conditions Fewer Conditions

10-Day Weather Forecast

Almanac

Astronomy

Oct. 24, 2014 Rise Set
Actual Time 7:52 AM EDT 6:54 PM EDT
Civil Twilight 7:27 AM EDT 7:20 PM EDT
Nautical Twilight 6:57 AM EDT 7:49 PM EDT
Astronomical Twilight 6:28 AM EDT 8:18 PM EDT
Moon 8:29 AM EDT 7:36 PM EDT
Length of Visible Light 11h 53m
Length of Day
11h 02m
Tomorrow will be 1m 58s shorter.
New Moon, 1% of the Moon is Illuminated
Today
New Moon
Oct 30
First Quarter
Nov 6
Full
Nov 14
Last Quarter
Nov 22
New

Today's Extremes

State Highs State Lows

Community

WunderPhotos

Upload Photos

1,764,628 photos uploaded!

Nearby

Air Quality

  Air Quality AQ Index Pollutant
Yesterday Good
PM10
Yesterday Good
OZONE
Current Moderate
PM2.5
Current Good
OZONE
Friday Good
OZONE
Friday Good
PM2.5
Saturday Moderate
PM2.5
Saturday Good
OZONE

Snow Depth

Station Depth Elevation
No new snow has been reported.

Earthquake Activity

City Distance Mag. Time & Date
No recent earthquake activity has been reported nearby.
Minimum magnitude displayed is 2.5.

Coastal Water Temperatures

Place Temperature
No Stations Reporting

Nearby Weather Stations